createdAt,value
2019-04-29T00:00:12.875Z,0.00
2019-04-29T00:01:12.867Z,0.00
2019-04-29T00:02:12.856Z,0.00
2019-04-29T00:03:12.861Z,0.00
2019-04-29T00:04:12.826Z,0.00
2019-04-29T00:05:12.814Z,0.00
2019-04-29T00:06:12.809Z,0.00
2019-04-29T00:07:12.798Z,0.00
2019-04-29T00:08:12.817Z,0.00
2019-04-29T00:09:12.774Z,0.00
2019-04-29T00:10:12.766Z,0.00
2019-04-29T00:11:12.755Z,0.00
2019-04-29T00:12:12.746Z,0.00
2019-04-29T00:13:12.737Z,0.00
2019-04-29T00:14:12.746Z,0.00
2019-04-29T00:15:12.734Z,0.00
2019-04-29T00:16:12.697Z,0.00
2019-04-29T00:17:12.686Z,0.00
2019-04-29T00:18:12.675Z,0.00
2019-04-29T00:19:12.731Z,0.00
2019-04-29T00:20:12.660Z,0.00
2019-04-29T00:21:12.650Z,0.00
2019-04-29T00:22:12.638Z,0.00
2019-04-29T00:23:12.620Z,0.00
2019-04-29T00:24:12.641Z,0.00
2019-04-29T00:25:12.606Z,0.00
2019-04-29T00:26:12.597Z,0.00
2019-04-29T00:27:12.586Z,0.00
2019-04-29T00:28:12.570Z,0.00
2019-04-29T00:29:12.587Z,0.00
2019-04-29T00:30:12.548Z,0.00
2019-04-29T00:31:12.537Z,0.00
2019-04-29T00:32:12.534Z,0.00
2019-04-29T00:33:12.525Z,0.00
2019-04-29T00:34:12.509Z,0.00
2019-04-29T00:35:12.538Z,0.00
2019-04-29T00:36:12.484Z,0.00
2019-04-29T00:37:12.471Z,0.00
2019-04-29T00:38:12.469Z,0.00
2019-04-29T00:39:12.459Z,0.00
2019-04-29T00:40:12.439Z,0.00
2019-04-29T00:41:12.446Z,0.00
2019-04-29T00:42:12.422Z,0.00
2019-04-29T00:43:12.413Z,0.00
2019-04-29T00:44:12.408Z,0.00
2019-04-29T00:45:12.393Z,0.00
2019-04-29T00:46:12.403Z,0.00
2019-04-29T00:47:12.374Z,0.00
2019-04-29T00:48:12.353Z,0.00
2019-04-29T00:49:12.373Z,0.00
2019-04-29T00:50:12.334Z,0.00
2019-04-29T00:51:12.321Z,0.00
2019-04-29T00:52:12.317Z,0.00
2019-04-29T00:53:12.309Z,0.00
2019-04-29T00:54:12.439Z,0.00
2019-04-29T00:55:12.291Z,0.00
2019-04-29T00:56:12.273Z,0.00
2019-04-29T00:57:12.286Z,0.00
2019-04-29T00:58:12.264Z,0.00
2019-04-29T00:59:12.262Z,0.00
2019-04-29T01:00:12.227Z,0.00
2019-04-29T01:01:12.217Z,0.00
2019-04-29T01:02:12.224Z,0.00
2019-04-29T01:03:12.194Z,0.00
2019-04-29T01:04:12.208Z,0.00
2019-04-29T01:05:12.179Z,0.00
2019-04-29T01:06:12.174Z,0.00
2019-04-29T01:07:12.189Z,0.00
2019-04-29T01:08:12.139Z,0.00
2019-04-29T01:09:12.130Z,0.00
2019-04-29T01:10:12.126Z,0.00
2019-04-29T01:11:12.114Z,0.00
2019-04-29T01:12:12.150Z,0.00
2019-04-29T01:13:12.122Z,0.00
2019-04-29T01:14:12.083Z,0.00
2019-04-29T01:15:12.098Z,0.00
2019-04-29T01:16:12.069Z,0.00
2019-04-29T01:17:12.049Z,0.00
2019-04-29T01:18:12.038Z,0.00
2019-04-29T01:19:12.067Z,0.00
2019-04-29T01:20:12.015Z,0.00
2019-04-29T01:21:12.054Z,0.00
2019-04-29T01:22:11.993Z,0.00
2019-04-29T01:23:11.984Z,0.00
2019-04-29T01:24:11.997Z,0.00
2019-04-29T01:25:11.967Z,0.00
2019-04-29T01:26:11.950Z,0.00
2019-04-29T01:27:11.939Z,0.00
2019-04-29T01:28:11.935Z,0.00
2019-04-29T01:29:11.943Z,0.00
2019-04-29T01:30:11.913Z,0.00
2019-04-29T01:31:11.904Z,0.00
2019-04-29T01:32:11.907Z,0.00
2019-04-29T01:33:11.876Z,0.00
2019-04-29T01:34:11.883Z,0.00
2019-04-29T01:35:11.854Z,0.00
2019-04-29T01:36:11.850Z,0.00
2019-04-29T01:37:11.856Z,0.00
2019-04-29T01:38:11.826Z,0.00
2019-04-29T01:39:11.842Z,0.00
2019-04-29T01:40:11.799Z,0.00
2019-04-29T01:41:11.789Z,0.00
2019-04-29T01:42:11.784Z,0.00
2019-04-29T01:43:11.774Z,0.00
2019-04-29T01:44:11.778Z,0.00
2019-04-29T01:45:12.516Z,0.00
2019-04-29T01:46:11.736Z,0.00
2019-04-29T01:47:11.725Z,0.00
2019-04-29T01:48:11.719Z,0.00
2019-04-29T01:49:11.728Z,0.00
2019-04-29T01:50:11.700Z,0.00
2019-04-29T01:51:11.692Z,0.00
2019-04-29T01:52:11.672Z,0.00
2019-04-29T01:53:11.674Z,0.00
2019-04-29T01:54:11.678Z,0.00
2019-04-29T01:55:11.648Z,0.00
2019-04-29T01:56:11.638Z,0.00
2019-04-29T01:57:11.625Z,0.00
2019-04-29T01:58:11.607Z,0.00
2019-04-29T01:59:11.597Z,0.00
2019-04-29T02:00:12.470Z,0.00
2019-04-29T02:01:11.586Z,0.00
2019-04-29T02:02:11.655Z,0.00
2019-04-29T02:03:11.561Z,0.00
2019-04-29T02:04:11.545Z,0.00
2019-04-29T02:05:11.556Z,0.00
2019-04-29T02:06:11.524Z,0.00
2019-04-29T02:07:11.530Z,0.00
2019-04-29T02:08:11.507Z,0.00
2019-04-29T02:09:11.497Z,0.00
2019-04-29T02:10:11.519Z,0.00
2019-04-29T02:11:11.504Z,0.00
2019-04-29T02:12:11.458Z,0.00
2019-04-29T02:13:11.448Z,0.00
2019-04-29T02:14:11.452Z,0.00
2019-04-29T02:15:11.461Z,0.00
2019-04-29T02:16:11.418Z,0.00
2019-04-29T02:17:11.410Z,0.00
2019-04-29T02:18:11.405Z,0.00
2019-04-29T02:19:11.385Z,0.00
2019-04-29T02:20:11.383Z,0.00
2019-04-29T02:21:11.389Z,0.00
2019-04-29T02:22:11.359Z,0.00
2019-04-29T02:23:11.350Z,0.00
2019-04-29T02:24:11.338Z,0.00
2019-04-29T02:25:11.324Z,0.00
2019-04-29T02:26:11.329Z,0.00
2019-04-29T02:27:11.301Z,0.00
2019-04-29T02:28:11.296Z,0.00
2019-04-29T02:29:11.309Z,0.00
2019-04-29T02:30:11.273Z,0.00
2019-04-29T02:31:11.263Z,0.00
2019-04-29T02:32:11.274Z,0.00
2019-04-29T02:33:11.244Z,0.00
2019-04-29T02:34:11.232Z,0.00
2019-04-29T02:35:11.224Z,0.00
2019-04-29T02:36:11.207Z,0.00
2019-04-29T02:37:11.225Z,0.00
2019-04-29T02:38:11.188Z,0.00
2019-04-29T02:39:11.175Z,0.00
2019-04-29T02:40:11.172Z,0.00
2019-04-29T02:41:11.161Z,0.00
2019-04-29T02:42:11.173Z,0.00
2019-04-29T02:43:11.147Z,0.00
2019-04-29T02:44:11.147Z,0.00
2019-04-29T02:45:11.114Z,0.00
2019-04-29T02:46:11.109Z,0.00
2019-04-29T02:47:11.101Z,0.00
2019-04-29T02:48:11.093Z,0.00
2019-04-29T02:49:11.099Z,0.00
2019-04-29T02:50:11.062Z,0.00
2019-04-29T02:51:11.049Z,0.00
2019-04-29T02:52:11.046Z,0.00
2019-04-29T02:53:11.056Z,0.00
2019-04-29T02:54:11.029Z,0.00
2019-04-29T02:55:11.011Z,0.00
2019-04-29T02:56:10.993Z,0.00
2019-04-29T02:57:10.985Z,0.00
2019-04-29T02:58:12.616Z,0.00
2019-04-29T02:59:10.985Z,0.00
2019-04-29T03:00:11.537Z,0.00
2019-04-29T03:01:10.950Z,0.00
2019-04-29T03:02:10.933Z,0.00
2019-04-29T03:03:10.939Z,0.00
2019-04-29T03:04:10.921Z,0.00
2019-04-29T03:05:10.923Z,0.00
2019-04-29T03:06:10.897Z,0.00
2019-04-29T03:07:10.882Z,0.00
2019-04-29T03:08:10.886Z,0.00
2019-04-29T03:09:10.858Z,0.00
2019-04-29T03:10:10.846Z,0.00
2019-04-29T03:11:10.836Z,0.00
2019-04-29T03:12:10.829Z,0.00
2019-04-29T03:13:10.848Z,0.00
2019-04-29T03:14:10.814Z,0.00
2019-04-29T03:15:10.801Z,0.00
2019-04-29T03:16:10.783Z,0.00
2019-04-29T03:17:10.772Z,0.00
2019-04-29T03:18:10.767Z,0.00
2019-04-29T03:19:10.785Z,0.00
2019-04-29T03:20:10.744Z,0.00
2019-04-29T03:21:10.730Z,0.00
2019-04-29T03:22:10.728Z,0.00
2019-04-29T03:23:10.711Z,0.00
2019-04-29T03:24:10.724Z,0.00
2019-04-29T03:25:10.692Z,0.00
2019-04-29T03:26:10.681Z,0.00
2019-04-29T03:27:10.679Z,0.00
2019-04-29T03:28:10.657Z,0.00
2019-04-29T03:29:10.672Z,0.00
2019-04-29T03:30:10.634Z,0.00
2019-04-29T03:31:10.635Z,0.00
2019-04-29T03:32:10.658Z,0.00
2019-04-29T03:33:10.609Z,0.00
2019-04-29T03:34:10.590Z,0.00
2019-04-29T03:35:10.634Z,0.00
2019-04-29T03:36:10.576Z,0.00
2019-04-29T03:37:10.563Z,0.00
2019-04-29T03:38:10.570Z,0.00
2019-04-29T03:39:10.544Z,0.00
2019-04-29T03:40:10.559Z,0.00
2019-04-29T03:41:10.526Z,0.00
2019-04-29T03:42:10.506Z,0.00
2019-04-29T03:43:10.499Z,0.00
2019-04-29T03:44:10.489Z,0.00
2019-04-29T03:45:10.551Z,0.00
2019-04-29T03:46:10.488Z,5.62
2019-04-29T03:47:10.459Z,0.00
2019-04-29T03:48:10.442Z,0.00
2019-04-29T03:49:10.434Z,0.00
2019-04-29T03:50:10.427Z,0.00
2019-04-29T03:51:10.434Z,5.62
2019-04-29T03:52:10.401Z,5.62
2019-04-29T03:53:10.394Z,5.62
2019-04-29T03:54:10.377Z,5.62
2019-04-29T03:55:10.368Z,5.62
2019-04-29T03:56:10.386Z,5.62
2019-04-29T03:57:10.357Z,5.62
2019-04-29T03:58:10.470Z,5.62
2019-04-29T03:59:10.330Z,5.62
2019-04-29T04:00:10.339Z,5.62
2019-04-29T04:01:10.316Z,5.62
2019-04-29T04:02:10.296Z,5.62
2019-04-29T04:03:10.289Z,5.62
2019-04-29T04:04:10.315Z,11.25
2019-04-29T04:05:10.265Z,11.25
2019-04-29T04:06:10.252Z,11.25
2019-04-29T04:07:10.241Z,11.25
2019-04-29T04:08:10.237Z,11.25
2019-04-29T04:09:10.227Z,16.88
2019-04-29T04:10:10.249Z,11.25
2019-04-29T04:11:10.201Z,11.25
2019-04-29T04:12:10.197Z,16.88
2019-04-29T04:13:10.175Z,16.88
2019-04-29T04:14:10.168Z,16.88
2019-04-29T04:15:10.155Z,16.88
2019-04-29T04:16:10.173Z,11.25
2019-04-29T04:17:10.140Z,11.25
2019-04-29T04:18:10.130Z,16.88
2019-04-29T04:19:10.149Z,22.50
2019-04-29T04:20:10.104Z,22.50
2019-04-29T04:21:10.114Z,16.88
2019-04-29T04:22:10.088Z,22.50
2019-04-29T04:23:10.077Z,22.50
2019-04-29T04:24:10.059Z,16.88
2019-04-29T04:25:10.061Z,11.25
2019-04-29T04:26:10.060Z,11.25
2019-04-29T04:27:10.032Z,16.88
2019-04-29T04:28:10.024Z,11.25
2019-04-29T04:29:10.013Z,11.25
2019-04-29T04:30:10.003Z,16.88
2019-04-29T04:31:10.031Z,22.50
2019-04-29T04:32:09.979Z,22.50
2019-04-29T04:33:09.965Z,28.12
2019-04-29T04:34:09.959Z,28.12
2019-04-29T04:35:09.945Z,33.75
2019-04-29T04:36:09.964Z,33.75
2019-04-29T04:37:09.924Z,33.75
2019-04-29T04:38:09.912Z,33.75
2019-04-29T04:39:09.906Z,33.75
2019-04-29T04:40:09.897Z,39.38
2019-04-29T04:41:09.887Z,39.38
2019-04-29T04:42:09.918Z,50.62
2019-04-29T04:43:09.865Z,61.88
2019-04-29T04:44:09.857Z,45.00
2019-04-29T04:45:09.839Z,39.38
2019-04-29T04:46:09.828Z,45.00
2019-04-29T04:47:09.829Z,50.62
2019-04-29T04:48:09.837Z,56.25
2019-04-29T04:49:09.805Z,50.62
2019-04-29T04:50:09.819Z,50.62
2019-04-29T04:51:09.784Z,45.00
2019-04-29T04:52:09.760Z,33.75
2019-04-29T04:53:09.771Z,33.75
2019-04-29T04:54:09.752Z,33.75
2019-04-29T04:55:09.741Z,33.75
2019-04-29T04:56:09.718Z,50.62
2019-04-29T04:57:09.710Z,56.25
2019-04-29T04:58:09.722Z,45.00
2019-04-29T04:59:09.709Z,33.75
2019-04-29T05:00:09.690Z,33.75
2019-04-29T05:01:09.676Z,33.75
2019-04-29T05:02:09.666Z,50.62
2019-04-29T05:03:09.688Z,56.25
2019-04-29T05:04:09.635Z,61.88
2019-04-29T05:05:09.627Z,56.25
2019-04-29T05:06:09.614Z,45.00
2019-04-29T05:07:09.608Z,50.62
2019-04-29T05:08:09.602Z,45.00
2019-04-29T05:09:09.621Z,39.38
2019-04-29T05:10:09.570Z,39.38
2019-04-29T05:11:09.566Z,45.00
2019-04-29T05:12:09.557Z,50.62
2019-04-29T05:13:09.548Z,39.38
2019-04-29T05:14:09.536Z,39.38
2019-04-29T05:15:09.555Z,39.38
2019-04-29T05:16:09.511Z,45.00
2019-04-29T05:17:09.500Z,45.00
2019-04-29T05:18:09.498Z,56.25
2019-04-29T05:19:09.489Z,50.62
2019-04-29T05:20:09.470Z,50.62
2019-04-29T05:21:09.481Z,56.25
2019-04-29T05:22:09.451Z,67.50
2019-04-29T05:23:09.445Z,61.88
2019-04-29T05:24:09.429Z,73.12
2019-04-29T05:25:09.418Z,67.50
2019-04-29T05:26:09.426Z,73.12
2019-04-29T05:27:09.403Z,73.12
2019-04-29T05:28:09.388Z,84.38
2019-04-29T05:29:09.373Z,78.75
2019-04-29T05:30:09.364Z,78.75
2019-04-29T05:31:09.376Z,73.12
2019-04-29T05:32:09.345Z,101.25
2019-04-29T05:33:09.336Z,84.38
2019-04-29T05:34:09.324Z,61.88
2019-04-29T05:35:09.316Z,50.62
2019-04-29T05:36:09.321Z,78.75
2019-04-29T05:37:09.287Z,73.12
2019-04-29T05:38:09.279Z,67.50
2019-04-29T05:39:09.265Z,61.88
2019-04-29T05:40:09.258Z,50.62
2019-04-29T05:41:09.266Z,39.38
2019-04-29T05:42:15.986Z,45.00
2019-04-29T05:43:10.220Z,50.62
2019-04-29T05:44:09.220Z,45.00
2019-04-29T05:45:09.213Z,56.25
2019-04-29T05:46:09.216Z,56.25
2019-04-29T05:47:09.193Z,45.00
2019-04-29T05:48:09.168Z,33.75
2019-04-29T05:49:09.159Z,33.75
2019-04-29T05:50:11.829Z,33.75
2019-04-29T05:51:10.163Z,33.75
2019-04-29T05:52:09.129Z,28.12
2019-04-29T05:53:11.559Z,28.12
2019-04-29T05:54:10.112Z,39.38
2019-04-29T05:55:09.452Z,45.00
2019-04-29T05:56:09.080Z,33.75
2019-04-29T05:57:09.121Z,33.75
2019-04-29T05:58:09.069Z,39.38
2019-04-29T05:59:12.944Z,33.75
2019-04-29T06:00:09.039Z,28.12
2019-04-29T06:01:09.032Z,33.75
2019-04-29T06:02:09.034Z,28.12
2019-04-29T06:03:09.006Z,28.12
2019-04-29T06:04:11.712Z,33.75
2019-04-29T06:05:09.998Z,39.38
2019-04-29T06:06:12.047Z,61.88
2019-04-29T06:07:09.000Z,50.62
2019-04-29T06:08:08.976Z,50.62
2019-04-29T06:09:11.635Z,61.88
2019-04-29T06:10:09.968Z,90.00
2019-04-29T06:11:08.927Z,61.88
2019-04-29T06:12:08.928Z,61.88
2019-04-29T06:13:08.929Z,73.12
2019-04-29T06:14:08.898Z,73.12
2019-04-29T06:15:08.885Z,61.88
2019-04-29T06:16:08.885Z,50.62
2019-04-29T06:17:08.874Z,61.88
2019-04-29T06:18:08.952Z,56.25
2019-04-29T06:19:08.863Z,61.88
2019-04-29T06:20:08.835Z,56.25
2019-04-29T06:21:09.739Z,67.50
2019-04-29T06:22:08.823Z,67.50
2019-04-29T06:23:08.796Z,78.75
2019-04-29T06:24:08.809Z,73.12
2019-04-29T06:25:08.783Z,73.12
2019-04-29T06:26:08.767Z,73.12
2019-04-29T06:27:08.756Z,84.38
2019-04-29T06:28:08.770Z,78.75
2019-04-29T06:29:08.730Z,90.00
2019-04-29T06:30:08.726Z,90.00
2019-04-29T06:31:08.739Z,101.25
2019-04-29T06:32:08.695Z,135.00
2019-04-29T06:33:08.704Z,151.88
2019-04-29T06:34:08.700Z,196.88
2019-04-29T06:35:10.642Z,230.62
2019-04-29T06:36:09.662Z,202.50
2019-04-29T06:37:08.652Z,236.25
2019-04-29T06:38:08.641Z,213.75
2019-04-29T06:39:08.627Z,168.75
2019-04-29T06:40:08.630Z,180.00
2019-04-29T06:41:09.726Z,163.12
2019-04-29T06:42:08.591Z,151.88
2019-04-29T06:43:08.587Z,146.25
2019-04-29T06:44:15.914Z,151.88
2019-04-29T06:45:09.595Z,151.88
2019-04-29T06:46:08.555Z,151.88
2019-04-29T06:47:08.538Z,168.75
2019-04-29T06:48:08.531Z,168.75
2019-04-29T06:49:10.443Z,163.12
2019-04-29T06:50:08.511Z,151.88
2019-04-29T06:51:08.552Z,151.88
2019-04-29T06:52:08.482Z,151.88
2019-04-29T06:53:08.475Z,157.50
2019-04-29T06:54:08.463Z,129.38
2019-04-29T06:55:08.453Z,129.38
2019-04-29T06:56:09.212Z,123.75
2019-04-29T06:57:08.434Z,129.38
2019-04-29T06:58:08.430Z,135.00
2019-04-29T06:59:12.079Z,129.38
2019-04-29T07:00:09.396Z,118.12
2019-04-29T07:01:08.420Z,118.12
2019-04-29T07:02:09.392Z,135.00
2019-04-29T07:03:09.374Z,123.75
2019-04-29T07:04:08.355Z,123.75
2019-04-29T07:05:08.347Z,129.38
2019-04-29T07:06:08.334Z,123.75
2019-04-29T07:07:08.348Z,112.50
2019-04-29T07:08:08.338Z,129.38
2019-04-29T07:09:08.305Z,129.38
2019-04-29T07:10:08.298Z,118.12
2019-04-29T07:11:08.305Z,112.50
2019-04-29T07:12:12.322Z,112.50
2019-04-29T07:13:09.288Z,118.12
2019-04-29T07:14:08.249Z,106.88
2019-04-29T07:15:12.273Z,112.50
2019-04-29T07:16:09.237Z,112.50
2019-04-29T07:17:08.224Z,95.62
2019-04-29T07:18:08.222Z,95.62
2019-04-29T07:19:08.192Z,95.62
2019-04-29T07:20:08.208Z,84.38
2019-04-29T07:21:11.940Z,78.75
2019-04-29T07:22:08.180Z,78.75
2019-04-29T07:23:08.180Z,73.12
2019-04-29T07:24:08.139Z,73.12
2019-04-29T07:25:08.129Z,67.50
2019-04-29T07:26:08.121Z,73.12
2019-04-29T07:27:08.107Z,67.50
2019-04-29T07:28:08.136Z,73.12
2019-04-29T07:29:08.092Z,61.88
2019-04-29T07:30:08.436Z,67.50
2019-04-29T07:31:10.162Z,73.12
2019-04-29T07:32:09.244Z,73.12
2019-04-29T07:33:08.044Z,67.50
2019-04-29T07:34:08.554Z,84.38
2019-04-29T07:35:09.962Z,84.38
2019-04-29T07:36:11.152Z,95.62
2019-04-29T07:37:07.999Z,101.25
2019-04-29T07:38:08.606Z,95.62
2019-04-29T07:39:08.003Z,112.50
2019-04-29T07:40:09.230Z,106.88
2019-04-29T07:41:10.000Z,123.75
2019-04-29T07:42:07.967Z,123.75
2019-04-29T07:43:09.537Z,140.62
2019-04-29T07:44:07.942Z,151.88
2019-04-29T07:45:07.914Z,157.50
2019-04-29T07:46:07.907Z,174.38
2019-04-29T07:47:07.893Z,157.50
2019-04-29T07:48:07.888Z,202.50
2019-04-29T07:49:07.898Z,191.25
2019-04-29T07:50:07.888Z,151.88
2019-04-29T07:51:07.857Z,163.12
2019-04-29T07:52:09.756Z,163.12
2019-04-29T07:53:08.831Z,151.88
2019-04-29T07:54:11.149Z,146.25
2019-04-29T07:55:08.817Z,129.38
2019-04-29T07:56:08.210Z,123.75
2019-04-29T07:57:07.808Z,106.88
2019-04-29T07:58:07.796Z,123.75
2019-04-29T07:59:07.784Z,123.75
2019-04-29T08:00:08.560Z,95.62
2019-04-29T08:01:07.753Z,101.25
2019-04-29T08:02:07.739Z,123.75
2019-04-29T08:03:07.757Z,101.25
2019-04-29T08:04:07.734Z,123.75
2019-04-29T08:05:07.703Z,123.75
2019-04-29T08:06:07.779Z,129.38
2019-04-29T08:07:07.686Z,123.75
2019-04-29T08:08:07.686Z,123.75
2019-04-29T08:09:09.486Z,140.62
2019-04-29T08:10:22.808Z,118.12
2019-04-29T08:11:08.638Z,146.25
2019-04-29T08:12:07.629Z,123.75
2019-04-29T08:13:07.620Z,112.50
2019-04-29T08:14:07.612Z,95.62
2019-04-29T08:15:08.649Z,90.00
2019-04-29T08:16:07.583Z,90.00
2019-04-29T08:17:07.579Z,90.00
2019-04-29T08:18:11.385Z,106.88
2019-04-29T08:19:08.556Z,106.88
2019-04-29T08:20:07.569Z,84.38
2019-04-29T08:21:10.254Z,95.62
2019-04-29T08:22:08.516Z,95.62
2019-04-29T08:23:07.506Z,112.50
2019-04-29T08:24:07.503Z,95.62
2019-04-29T08:25:07.512Z,112.50
2019-04-29T08:26:07.486Z,129.38
2019-04-29T08:27:07.471Z,140.62
2019-04-29T08:28:07.454Z,163.12
2019-04-29T08:29:07.441Z,168.75
2019-04-29T08:30:11.305Z,185.62
2019-04-29T08:31:08.425Z,202.50
2019-04-29T08:32:07.417Z,270.00
2019-04-29T08:33:11.490Z,292.50
2019-04-29T08:34:07.398Z,331.88
2019-04-29T08:35:07.405Z,326.25
2019-04-29T08:36:07.391Z,371.25
2019-04-29T08:37:07.361Z,264.38
2019-04-29T08:38:07.351Z,241.88
2019-04-29T08:39:08.878Z,281.25
2019-04-29T08:40:16.005Z,196.88
2019-04-29T08:41:08.334Z,264.38
2019-04-29T08:42:09.132Z,337.50
2019-04-29T08:43:07.298Z,354.38
2019-04-29T08:44:15.904Z,315.00
2019-04-29T08:45:08.294Z,292.50
2019-04-29T08:46:07.335Z,292.50
2019-04-29T08:47:07.257Z,275.62
2019-04-29T08:48:07.244Z,348.75
2019-04-29T08:49:07.813Z,421.88
2019-04-29T08:50:07.224Z,348.75
2019-04-29T08:51:07.244Z,354.38
2019-04-29T08:52:07.204Z,399.38
2019-04-29T08:53:07.210Z,416.25
2019-04-29T08:54:07.182Z,433.12
2019-04-29T08:55:07.167Z,371.25
2019-04-29T08:56:10.120Z,365.62
2019-04-29T08:57:07.149Z,438.75
2019-04-29T08:58:11.078Z,421.88
2019-04-29T08:59:08.126Z,444.38
2019-04-29T09:00:07.119Z,478.12
2019-04-29T09:01:07.148Z,562.50
2019-04-29T09:02:10.333Z,675.00
2019-04-29T09:03:07.078Z,624.38
2019-04-29T09:04:07.073Z,624.38
2019-04-29T09:05:11.263Z,551.25
2019-04-29T09:06:08.067Z,562.50
2019-04-29T09:07:12.698Z,652.50
2019-04-29T09:08:08.075Z,916.88
2019-04-29T09:09:10.648Z,1350.00
2019-04-29T09:10:08.012Z,1833.75
2019-04-29T09:11:08.280Z,1057.50
2019-04-29T09:12:07.981Z,635.62
2019-04-29T09:13:06.978Z,601.88
2019-04-29T09:14:06.961Z,675.00
2019-04-29T09:15:06.951Z,601.88
2019-04-29T09:16:06.964Z,613.12
2019-04-29T09:17:19.795Z,618.75
2019-04-29T09:18:10.837Z,686.25
2019-04-29T09:19:06.919Z,742.50
2019-04-29T09:20:06.918Z,770.62
2019-04-29T09:21:06.889Z,697.50
2019-04-29T09:22:06.874Z,883.12
2019-04-29T09:23:08.197Z,866.25
2019-04-29T09:24:06.858Z,691.88
2019-04-29T09:25:06.871Z,770.62
2019-04-29T09:26:06.830Z,675.00
2019-04-29T09:27:09.586Z,562.50
2019-04-29T09:28:06.837Z,663.75
2019-04-29T09:29:06.805Z,483.75
2019-04-29T09:30:06.795Z,472.50
2019-04-29T09:31:06.786Z,455.62
2019-04-29T09:32:06.770Z,517.50
2019-04-29T09:33:08.843Z,540.00
2019-04-29T09:34:07.752Z,601.88
2019-04-29T09:35:06.737Z,534.38
2019-04-29T09:36:09.585Z,618.75
2019-04-29T09:37:07.722Z,551.25
2019-04-29T09:38:06.712Z,523.12
2019-04-29T09:39:06.724Z,506.25
2019-04-29T09:40:06.686Z,438.75
2019-04-29T09:41:06.695Z,438.75
2019-04-29T09:42:08.117Z,438.75
2019-04-29T09:43:15.258Z,551.25
2019-04-29T09:44:07.668Z,500.62
2019-04-29T09:45:06.631Z,376.88
2019-04-29T09:46:06.620Z,343.12
2019-04-29T09:47:08.618Z,376.88
2019-04-29T09:48:06.603Z,337.50
2019-04-29T09:49:06.624Z,331.88
2019-04-29T09:50:06.584Z,331.88
2019-04-29T09:51:17.138Z,393.75
2019-04-29T09:52:07.550Z,500.62
2019-04-29T09:53:06.543Z,388.12
2019-04-29T09:54:09.788Z,348.75
2019-04-29T09:55:07.523Z,416.25
2019-04-29T09:56:06.548Z,416.25
2019-04-29T09:57:06.504Z,450.00
2019-04-29T09:58:06.490Z,483.75
2019-04-29T09:59:06.478Z,450.00
2019-04-29T10:00:07.112Z,489.38
2019-04-29T10:01:06.503Z,511.88
2019-04-29T10:02:06.454Z,528.75
2019-04-29T10:03:06.446Z,506.25
2019-04-29T10:04:06.423Z,444.38
2019-04-29T10:05:06.431Z,495.00
2019-04-29T10:06:06.407Z,511.88
2019-04-29T10:07:06.425Z,483.75
2019-04-29T10:08:06.392Z,534.38
2019-04-29T10:09:06.381Z,568.12
2019-04-29T10:10:06.986Z,472.50
2019-04-29T10:11:06.391Z,511.88
2019-04-29T10:12:06.338Z,528.75
2019-04-29T10:13:06.333Z,523.12
2019-04-29T10:14:06.327Z,579.38
2019-04-29T10:15:06.313Z,528.75
2019-04-29T10:16:06.297Z,528.75
2019-04-29T10:17:06.307Z,506.25
2019-04-29T10:18:06.293Z,450.00
2019-04-29T10:19:07.018Z,421.88
2019-04-29T10:20:08.036Z,466.88
2019-04-29T10:21:06.303Z,433.12
2019-04-29T10:22:06.257Z,393.75
2019-04-29T10:23:06.230Z,399.38
2019-04-29T10:24:06.216Z,393.75
2019-04-29T10:25:06.201Z,365.62
2019-04-29T10:26:06.186Z,421.88
2019-04-29T10:27:07.278Z,343.12
2019-04-29T10:28:06.177Z,365.62
2019-04-29T10:29:06.166Z,348.75
2019-04-29T10:30:06.149Z,371.25
2019-04-29T10:31:06.135Z,382.50
2019-04-29T10:32:06.743Z,376.88
2019-04-29T10:33:06.147Z,365.62
2019-04-29T10:34:06.109Z,376.88
2019-04-29T10:35:08.865Z,405.00
2019-04-29T10:36:06.082Z,444.38
2019-04-29T10:37:06.073Z,433.12
2019-04-29T10:38:06.061Z,483.75
2019-04-29T10:39:06.069Z,461.25
2019-04-29T10:40:11.445Z,427.50
2019-04-29T10:41:07.039Z,416.25
2019-04-29T10:42:06.023Z,450.00
2019-04-29T10:43:06.024Z,433.12
2019-04-29T10:44:06.018Z,433.12
2019-04-29T10:45:05.986Z,450.00
2019-04-29T10:46:05.983Z,433.12
2019-04-29T10:47:05.976Z,438.75
2019-04-29T10:48:05.954Z,461.25
2019-04-29T10:49:05.962Z,427.50
2019-04-29T10:50:05.933Z,478.12
2019-04-29T10:51:05.918Z,506.25
2019-04-29T10:52:05.915Z,455.62
2019-04-29T10:53:05.928Z,489.38
2019-04-29T10:54:05.899Z,500.62
2019-04-29T10:55:05.906Z,528.75
2019-04-29T10:56:06.988Z,562.50
2019-04-29T10:57:05.855Z,506.25
2019-04-29T10:58:05.873Z,455.62
2019-04-29T10:59:09.156Z,461.25
2019-04-29T11:00:06.829Z,461.25
2019-04-29T11:01:05.819Z,517.50
2019-04-29T11:02:13.651Z,540.00
2019-04-29T11:03:06.809Z,455.62
2019-04-29T11:04:08.714Z,455.62
2019-04-29T11:05:07.993Z,433.12
2019-04-29T11:06:06.765Z,455.62
2019-04-29T11:07:13.860Z,523.12
2019-04-29T11:08:06.742Z,545.62
2019-04-29T11:09:09.655Z,545.62
2019-04-29T11:10:08.176Z,495.00
2019-04-29T11:11:05.709Z,416.25
2019-04-29T11:12:08.650Z,450.00
2019-04-29T11:13:05.695Z,517.50
2019-04-29T11:14:05.701Z,523.12
2019-04-29T11:15:05.680Z,472.50
2019-04-29T11:16:05.657Z,466.88
2019-04-29T11:17:05.675Z,528.75
2019-04-29T11:18:05.645Z,534.38
2019-04-29T11:19:05.994Z,551.25
2019-04-29T11:20:05.608Z,495.00
2019-04-29T11:21:08.713Z,517.50
2019-04-29T11:22:05.600Z,523.12
2019-04-29T11:23:09.309Z,466.88
2019-04-29T11:24:06.572Z,433.12
2019-04-29T11:25:05.568Z,489.38
2019-04-29T11:26:05.551Z,506.25
2019-04-29T11:27:11.917Z,433.12
2019-04-29T11:28:06.566Z,450.00
2019-04-29T11:29:09.182Z,478.12
2019-04-29T11:30:05.508Z,596.25
2019-04-29T11:31:05.492Z,534.38
2019-04-29T11:32:05.495Z,691.88
2019-04-29T11:33:06.272Z,646.88
2019-04-29T11:34:05.621Z,697.50
2019-04-29T11:35:05.450Z,669.38
2019-04-29T11:36:05.887Z,703.12
2019-04-29T11:37:05.436Z,551.25
2019-04-29T11:38:05.424Z,556.88
2019-04-29T11:39:09.020Z,528.75
2019-04-29T11:40:06.401Z,523.12
2019-04-29T11:41:05.386Z,444.38
2019-04-29T11:42:05.375Z,427.50
2019-04-29T11:43:05.366Z,450.00
2019-04-29T11:44:05.377Z,438.75
2019-04-29T11:45:05.374Z,416.25
2019-04-29T11:46:05.340Z,393.75
2019-04-29T11:47:05.329Z,393.75
2019-04-29T11:48:05.313Z,405.00
2019-04-29T11:49:05.299Z,393.75
2019-04-29T11:50:07.557Z,388.12
2019-04-29T11:51:06.305Z,376.88
2019-04-29T11:52:09.662Z,393.75
2019-04-29T11:53:06.258Z,416.25
2019-04-29T11:54:08.135Z,427.50
2019-04-29T11:55:06.257Z,461.25
2019-04-29T11:56:05.238Z,489.38
2019-04-29T11:57:05.226Z,523.12
2019-04-29T11:58:05.210Z,483.75
2019-04-29T11:59:05.229Z,540.00
2019-04-29T12:00:05.216Z,517.50
2019-04-29T12:01:08.321Z,596.25
2019-04-29T12:02:05.162Z,630.00
2019-04-29T12:03:05.181Z,607.50
2019-04-29T12:04:05.147Z,545.62
2019-04-29T12:05:08.624Z,545.62
2019-04-29T12:06:05.146Z,573.75
2019-04-29T12:07:05.109Z,618.75
2019-04-29T12:08:11.364Z,635.62
2019-04-29T12:09:06.751Z,630.00
2019-04-29T12:10:06.483Z,624.38
2019-04-29T12:11:07.534Z,646.88
2019-04-29T12:12:07.901Z,669.38
2019-04-29T12:13:06.041Z,703.12
2019-04-29T12:14:05.047Z,708.75
2019-04-29T12:15:05.033Z,708.75
2019-04-29T12:16:05.118Z,720.00
2019-04-29T12:17:05.031Z,753.75
2019-04-29T12:18:04.991Z,770.62
2019-04-29T12:19:04.982Z,804.38
2019-04-29T12:20:04.976Z,776.25
2019-04-29T12:21:04.970Z,776.25
2019-04-29T12:22:08.795Z,708.75
2019-04-29T12:23:05.934Z,635.62
2019-04-29T12:24:05.017Z,641.25
2019-04-29T12:25:04.925Z,624.38
2019-04-29T12:26:05.088Z,613.12
2019-04-29T12:27:04.917Z,573.75
2019-04-29T12:28:18.349Z,635.62
2019-04-29T12:29:05.888Z,697.50
2019-04-29T12:30:04.870Z,725.62
2019-04-29T12:31:05.645Z,708.75
2019-04-29T12:32:04.848Z,781.88
2019-04-29T12:33:04.855Z,759.38
2019-04-29T12:34:04.838Z,804.38
2019-04-29T12:35:04.815Z,753.75
2019-04-29T12:36:05.164Z,731.25
2019-04-29T12:37:04.785Z,742.50
2019-04-29T12:38:06.010Z,753.75
2019-04-29T12:39:04.768Z,776.25
2019-04-29T12:40:04.753Z,770.62
2019-04-29T12:41:04.744Z,776.25
2019-04-29T12:42:05.717Z,871.88
2019-04-29T12:43:04.757Z,753.75
2019-04-29T12:44:04.717Z,742.50
2019-04-29T12:45:18.529Z,781.88
2019-04-29T12:46:05.698Z,945.00
2019-04-29T12:47:04.711Z,961.88
2019-04-29T12:48:06.442Z,995.62
2019-04-29T12:49:08.468Z,1085.62